Time;durP1;ratioP1;P1;durP2;ratioP2;P2;SDS_P1;SDS_P2;PMS_P1;PMS_P2;Temp;Humidity;BMP_temperature;BMP_pressure;BME280_temperature;BME280_humidity;BME280_pressure;Samples;Min_cycle;Max_cycle;Signal;HPM_P1;HPM_P2
2023/08/27 00:00:12;;;;;;;6.00;4.30;;;;;;;30.71;41.07;100609.73;102797;1291;61343;-81
2023/08/27 00:02:38;;;;;;;5.10;4.10;;;;;;;30.70;40.92;100606.52;102737;1291;62580;-83
2023/08/27 00:05:04;;;;;;;4.70;4.10;;;;;;;30.70;41.11;100608.34;102724;1295;61425;-81
2023/08/27 00:07:30;;;;;;;5.10;4.10;;;;;;;30.70;40.98;100604.00;102759;1291;62481;-82
2023/08/27 00:09:55;;;;;;;5.50;4.40;;;;;;;30.70;41.04;100600.77;102873;1291;61410;-81
2023/08/27 00:12:21;;;;;;;6.00;4.20;;;;;;;30.70;41.01;100603.29;102840;1291;61965;-81
2023/08/27 00:14:46;;;;;;;5.20;4.10;;;;;;;30.70;41.00;100600.73;102740;1296;61322;-83
2023/08/27 00:17:13;;;;;;;4.80;4.20;;;;;;;30.70;41.06;100595.87;102893;1291;62235;-81
2023/08/27 00:19:38;;;;;;;5.40;4.10;;;;;;;30.69;41.04;100589.19;102788;1291;61398;-81
2023/08/27 00:22:04;;;;;;;5.30;4.00;;;;;;;30.69;40.98;100590.48;102746;1291;62464;-83
2023/08/27 00:24:30;;;;;;;5.10;4.00;;;;;;;30.69;41.00;100585.21;102824;1291;61415;-82
2023/08/27 00:26:55;;;;;;;5.80;4.10;;;;;;;30.69;41.02;100581.19;102731;1291;61501;-81
2023/08/27 00:29:21;;;;;;;5.20;4.00;;;;;;;30.69;41.07;100580.17;102829;1291;61451;-81
2023/08/27 00:31:46;;;;;;;5.30;4.00;;;;;;;30.69;41.01;100577.41;102791;1291;61415;-81
2023/08/27 00:34:12;;;;;;;5.00;4.20;;;;;;;30.69;41.08;100574.21;102981;1291;61421;-81
2023/08/27 00:36:37;;;;;;;5.10;4.10;;;;;;;30.69;41.14;100572.54;102691;1291;62247;-81
2023/08/27 00:39:05;;;;;;;4.90;3.90;;;;;;;30.69;41.12;100572.20;102785;1296;61488;-81
2023/08/27 00:41:31;;;;;;;5.50;3.90;;;;;;;30.68;41.06;100572.98;102789;1293;65667;-83
2023/08/27 00:43:56;;;;;;;4.70;3.90;;;;;;;30.68;41.02;100573.91;102812;1291;61406;-81
2023/08/27 00:46:22;;;;;;;5.20;3.90;;;;;;;30.68;41.03;100572.79;102811;1290;61365;-81
2023/08/27 00:48:48;;;;;;;5.80;4.10;;;;;;;30.68;41.06;100573.70;103060;1289;61395;-81
2023/08/27 00:51:13;;;;;;;5.80;4.30;;;;;;;30.68;41.09;100570.84;102780;1291;62143;-81
2023/08/27 00:53:39;;;;;;;4.70;4.00;;;;;;;30.69;41.02;100575.50;102806;1291;61973;-81
2023/08/27 00:56:06;;;;;;;4.70;3.80;;;;;;;30.68;41.06;100577.00;102942;1291;61513;-81
2023/08/27 00:58:31;;;;;;;5.30;4.10;;;;;;;30.68;41.04;100580.28;102721;1290;61431;-81
2023/08/27 01:00:58;;;;;;;4.80;4.10;;;;;;;30.68;41.05;100588.63;102789;1293;62365;-81
2023/08/27 01:03:24;;;;;;;5.40;4.20;;;;;;;30.68;41.14;100590.80;102773;1293;61260;-83
2023/08/27 01:05:51;;;;;;;5.40;4.10;;;;;;;30.68;41.06;100588.99;102811;1293;62362;-81
2023/08/27 01:08:20;;;;;;;7.20;4.30;;;;;;;30.67;41.00;100591.07;102761;1291;61279;-81
2023/08/27 01:10:58;;;;;;;5.50;4.40;;;;;;;30.67;41.00;100588.35;102768;1291;63892;-81
2023/08/27 01:13:52;;;;;;;4.90;4.00;;;;;;;30.67;40.99;100584.71;102931;1291;65589;-81
2023/08/27 01:16:18;;;;;;;5.10;4.10;;;;;;;30.67;41.08;100586.79;102817;1293;61285;-81
2023/08/27 01:18:43;;;;;;;5.20;4.10;;;;;;;30.67;41.04;100586.25;102681;1296;61525;-81
2023/08/27 01:21:22;;;;;;;4.90;3.90;;;;;;;30.67;41.05;100584.58;102728;1291;61349;-81
2023/08/27 01:23:47;;;;;;;4.70;3.80;;;;;;;30.66;41.10;100583.38;102787;1296;65928;-81
2023/08/27 01:26:39;;;;;;;6.00;4.20;;;;;;;30.66;41.10;100583.39;102771;1291;61518;-81
2023/08/27 01:29:17;;;;;;;5.50;4.00;;;;;;;30.66;41.10;100585.44;102846;1291;61314;-81
2023/08/27 01:31:45;;;;;;;5.40;4.20;;;;;;;30.66;41.07;100583.45;102866;1290;63772;-82
2023/08/27 01:34:11;;;;;;;5.40;3.90;;;;;;;30.66;41.13;100580.52;102901;1291;65917;-81
2023/08/27 01:36:36;;;;;;;5.80;4.20;;;;;;;30.66;41.04;100576.71;102767;1289;63285;-81
2023/08/27 01:39:04;;;;;;;5.60;4.20;;;;;;;30.66;40.96;100570.34;102747;1291;61399;-82
2023/08/27 01:41:29;;;;;;;4.80;4.00;;;;;;;30.65;41.08;100569.87;102951;1293;61411;-82
2023/08/27 01:43:55;;;;;;;5.30;4.20;;;;;;;30.66;40.98;100567.62;102647;1290;61484;-82
2023/08/27 01:46:21;;;;;;;4.90;4.20;;;;;;;30.66;41.01;100567.12;102770;1293;61407;-82
2023/08/27 01:48:46;;;;;;;5.00;3.90;;;;;;;30.65;40.89;100565.34;102837;1289;61424;-83
2023/08/27 01:51:12;;;;;;;5.40;3.90;;;;;;;30.65;40.99;100562.24;102745;1290;61332;-83
2023/08/27 01:53:38;;;;;;;5.40;3.90;;;;;;;30.65;41.01;100564.84;102812;1291;62108;-82
2023/08/27 01:56:05;;;;;;;5.30;3.90;;;;;;;30.65;40.99;100567.18;102798;1290;61422;-83
2023/08/27 01:58:31;;;;;;;5.00;4.00;;;;;;;30.65;40.94;100564.84;102758;1294;61481;-83
2023/08/27 02:00:56;;;;;;;5.00;4.00;;;;;;;30.65;40.95;100567.94;102785;1291;62088;-83
2023/08/27 02:03:22;;;;;;;4.50;3.90;;;;;;;30.65;40.94;100570.70;102715;1296;61321;-81
2023/08/27 02:05:48;;;;;;;4.80;4.20;;;;;;;30.64;41.01;100571.28;102795;1291;61959;-82
2023/08/27 02:08:13;;;;;;;4.80;3.90;;;;;;;30.65;40.86;100569.40;102736;1296;62292;-82
2023/08/27 02:10:39;;;;;;;4.40;3.70;;;;;;;30.65;40.95;100566.34;102772;1290;61347;-82
2023/08/27 02:13:04;;;;;;;5.10;4.00;;;;;;;30.64;40.96;100564.92;102788;1290;61483;-82
2023/08/27 02:15:30;;;;;;;4.20;3.60;;;;;;;30.64;40.94;100566.54;102759;1295;62267;-82
2023/08/27 02:17:56;;;;;;;4.70;3.80;;;;;;;30.63;41.06;100567.02;102765;1295;61887;-82
2023/08/27 02:20:21;;;;;;;4.80;3.80;;;;;;;30.64;40.99;100566.83;102788;1292;62838;-82
2023/08/27 02:22:47;;;;;;;5.40;4.00;;;;;;;30.63;41.00;100565.94;102801;1291;61421;-81
2023/08/27 02:25:12;;;;;;;4.90;4.20;;;;;;;30.63;40.92;100561.73;102779;1291;61382;-82
2023/08/27 02:27:39;;;;;;;5.70;3.80;;;;;;;30.63;40.98;100560.14;102803;1293;61497;-83
2023/08/27 02:30:05;;;;;;;5.10;4.00;;;;;;;30.63;41.01;100562.32;102716;1296;61313;-83
2023/08/27 02:32:32;;;;;;;4.90;3.70;;;;;;;30.63;40.93;100567.02;102748;1291;61463;-83
2023/08/27 02:34:57;;;;;;;5.40;4.00;;;;;;;30.63;41.01;100563.05;102751;1289;61501;-82
2023/08/27 02:37:23;;;;;;;5.20;4.00;;;;;;;30.63;40.92;100563.58;102841;1291;61347;-80
2023/08/27 02:39:48;;;;;;;5.40;4.00;;;;;;;30.63;40.99;100560.22;102781;1296;61430;-80
2023/08/27 02:42:14;;;;;;;4.50;3.70;;;;;;;30.63;40.90;100558.18;102762;1293;61398;-83
2023/08/27 02:44:40;;;;;;;5.00;4.00;;;;;;;30.62;41.02;100561.69;102808;1290;61426;-81
2023/08/27 02:47:05;;;;;;;5.10;4.30;;;;;;;30.62;40.96;100562.81;102731;1291;62594;-81
2023/08/27 02:49:31;;;;;;;4.40;3.70;;;;;;;30.62;41.00;100561.55;102782;1293;62459;-81
2023/08/27 02:51:56;;;;;;;5.20;3.90;;;;;;;30.62;41.00;100565.02;102788;1291;61895;-81
2023/08/27 02:54:22;;;;;;;5.00;3.90;;;;;;;30.62;40.94;100567.17;102855;1296;61471;-81
2023/08/27 02:56:47;;;;;;;4.60;3.90;;;;;;;30.62;40.98;100567.01;102741;1291;61458;-81
2023/08/27 02:59:13;;;;;;;4.40;3.50;;;;;;;30.62;40.89;100568.46;102750;1291;61478;-82
2023/08/27 03:01:38;;;;;;;5.50;4.20;;;;;;;30.62;40.96;100570.52;102794;1289;61338;-81
2023/08/27 03:04:04;;;;;;;4.90;3.60;;;;;;;30.62;40.90;100569.39;102779;1291;61920;-81
2023/08/27 03:06:29;;;;;;;5.20;3.60;;;;;;;30.62;40.94;100571.77;102774;1291;61426;-81
2023/08/27 03:08:55;;;;;;;5.10;4.00;;;;;;;30.61;40.95;100572.39;102736;1294;61946;-81
2023/08/27 03:11:20;;;;;;;4.50;3.70;;;;;;;30.61;41.00;100574.90;102895;1290;61356;-81
2023/08/27 03:13:48;;;;;;;5.00;3.90;;;;;;;30.61;41.00;100577.08;102896;1301;61444;-81
2023/08/27 03:16:13;;;;;;;5.00;4.00;;;;;;;30.61;41.04;100578.72;102740;1296;61412;-81
2023/08/27 03:18:39;;;;;;;4.90;4.00;;;;;;;30.61;41.05;100577.24;102772;1291;61456;-81
2023/08/27 03:21:04;;;;;;;4.80;3.70;;;;;;;30.61;41.02;100577.48;102738;1291;61425;-82
2023/08/27 03:23:34;;;;;;;5.10;3.60;;;;;;;30.61;40.97;100579.08;102824;1291;61863;-82
2023/08/27 03:25:59;;;;;;;5.00;3.90;;;;;;;30.60;40.91;100576.60;102749;1291;64761;-80
2023/08/27 03:28:25;;;;;;;5.00;3.90;;;;;;;30.60;41.02;100580.08;102886;1290;61411;-81
2023/08/27 03:30:50;;;;;;;4.80;3.60;;;;;;;30.60;41.03;100582.50;102814;1291;62604;-84
2023/08/27 03:33:17;;;;;;;4.80;3.60;;;;;;;30.60;40.92;100578.15;102715;1296;61357;-82
2023/08/27 03:35:50;;;;;;;6.70;4.40;;;;;;;30.60;40.90;100574.46;102829;1291;61427;-82
2023/08/27 03:38:16;;;;;;;5.20;3.90;;;;;;;30.60;41.03;100575.79;102753;1293;65696;-82
2023/08/27 03:40:47;;;;;;;4.90;3.60;;;;;;;30.60;41.00;100572.86;102855;1291;61385;-82
2023/08/27 03:43:13;;;;;;;5.90;3.90;;;;;;;30.59;40.92;100572.42;102862;1290;61402;-82
2023/08/27 03:45:39;;;;;;;4.60;3.60;;;;;;;30.60;40.99;100574.50;102713;1291;61396;-82
2023/08/27 03:48:04;;;;;;;6.00;4.00;;;;;;;30.59;40.96;100575.83;102718;1291;61472;-82
2023/08/27 03:50:31;;;;;;;4.50;3.90;;;;;;;30.59;41.04;100578.55;102817;1291;61440;-82
2023/08/27 03:52:57;;;;;;;4.70;3.70;;;;;;;30.59;40.98;100576.00;102746;1291;61395;-82
2023/08/27 03:55:23;;;;;;;4.60;3.60;;;;;;;30.60;41.06;100575.79;102727;1290;62473;-82
2023/08/27 03:57:50;;;;;;;4.40;3.60;;;;;;;30.59;41.04;100574.73;102780;1291;61419;-83
2023/08/27 04:00:16;;;;;;;5.10;3.70;;;;;;;30.59;41.04;100572.55;102821;1291;61524;-83
2023/08/27 04:02:43;;;;;;;5.20;4.10;;;;;;;30.59;41.06;100572.01;102755;1294;61497;-81
2023/08/27 04:05:09;;;;;;;4.80;3.70;;;;;;;30.59;41.03;100570.80;102883;1291;62451;-81
2023/08/27 04:07:35;;;;;;;4.80;3.70;;;;;;;30.59;41.09;100568.54;102786;1291;63680;-81
2023/08/27 04:10:04;;;;;;;6.60;3.80;;;;;;;30.60;41.04;100572.87;103377;1293;62435;-82
2023/08/27 04:12:34;;;;;;;4.90;3.60;;;;;;;30.60;40.99;100571.43;103599;1290;62304;-82
2023/08/27 04:14:59;;;;;;;5.20;3.80;;;;;;;30.60;41.04;100571.23;103646;1289;61310;-83
2023/08/27 04:17:25;;;;;;;4.50;3.90;;;;;;;30.61;41.07;100575.14;103369;1291;61417;-82
2023/08/27 04:19:52;;;;;;;5.20;3.60;;;;;;;30.61;41.07;100581.07;102735;1291;61429;-81
2023/08/27 04:22:17;;;;;;;4.60;3.80;;;;;;;30.61;41.02;100579.98;102740;1296;61469;-81
2023/08/27 04:24:43;;;;;;;4.20;3.10;;;;;;;30.62;41.12;100582.59;102797;1289;62362;-81
2023/08/27 04:27:08;;;;;;;5.10;3.50;;;;;;;30.62;41.24;100586.04;102744;1291;61412;-81
2023/08/27 04:29:34;;;;;;;5.20;3.70;;;;;;;30.62;41.08;100587.15;102771;1291;61297;-81
2023/08/27 04:31:59;;;;;;;4.30;3.40;;;;;;;30.62;41.06;100588.77;102807;1290;62168;-81
2023/08/27 04:34:25;;;;;;;5.50;3.60;;;;;;;30.62;41.04;100586.81;102757;1291;61386;-81
2023/08/27 04:36:50;;;;;;;5.40;3.70;;;;;;;30.62;41.01;100585.86;102757;1291;61473;-81
2023/08/27 04:39:16;;;;;;;5.30;3.90;;;;;;;30.62;41.08;100587.12;102836;1291;62659;-83
2023/08/27 04:41:42;;;;;;;4.80;3.60;;;;;;;30.62;41.01;100591.31;102839;1291;61497;-81
2023/08/27 04:44:07;;;;;;;4.70;3.80;;;;;;;30.62;41.11;100596.45;102766;1291;61394;-81
2023/08/27 04:46:33;;;;;;;5.60;3.50;;;;;;;30.62;41.05;100599.85;102773;1291;61391;-81
2023/08/27 04:48:58;;;;;;;4.60;3.50;;;;;;;30.61;41.09;100598.66;102829;1291;62197;-81
2023/08/27 04:51:27;;;;;;;5.30;4.00;;;;;;;30.61;41.07;100598.87;102955;1291;61424;-81
2023/08/27 04:53:53;;;;;;;;;;;;;;;30.61;41.12;100598.30;102728;1296;61415;-81
2023/08/27 04:56:18;;;;;;;4.70;3.50;;;;;;;30.58;41.23;100598.78;102777;1293;61394;-81
2023/08/27 04:58:44;;;;;;;4.40;3.60;;;;;;;30.59;41.15;100600.72;102730;1291;61419;-81
2023/08/27 05:01:10;;;;;;;4.60;3.60;;;;;;;30.60;41.13;100597.92;102802;1293;61304;-82
2023/08/27 05:03:36;;;;;;;5.30;3.80;;;;;;;30.60;41.15;100600.10;102959;1293;61415;-82
2023/08/27 05:06:01;;;;;;;5.00;3.90;;;;;;;30.60;41.17;100601.19;102759;1290;65857;-81
2023/08/27 05:08:28;;;;;;;4.60;3.40;;;;;;;30.60;41.16;100603.33;102837;1291;61425;-81
2023/08/27 05:10:54;;;;;;;4.60;3.20;;;;;;;30.59;41.18;100603.37;102762;1291;62594;-81
2023/08/27 05:13:20;;;;;;;4.90;3.60;;;;;;;30.60;41.08;100603.14;102710;1289;61476;-81
2023/08/27 05:15:47;;;;;;;4.50;3.90;;;;;;;30.60;41.14;100608.98;102799;1295;62690;-81
2023/08/27 05:18:12;;;;;;;6.80;3.80;;;;;;;30.61;41.20;100611.27;102826;1291;62379;-81
2023/08/27 05:20:38;;;;;;;5.50;3.80;;;;;;;30.62;41.12;100609.53;103030;1291;61383;-81
2023/08/27 05:23:04;;;;;;;4.80;3.60;;;;;;;30.62;41.24;100613.30;102713;1296;62079;-82
2023/08/27 05:25:30;;;;;;;5.60;3.60;;;;;;;30.62;41.32;100615.50;102749;1291;61376;-81
2023/08/27 05:27:56;;;;;;;4.60;3.60;;;;;;;30.63;41.22;100614.30;102775;1296;61425;-81
2023/08/27 05:30:21;;;;;;;4.80;3.40;;;;;;;30.63;41.21;100611.73;102853;1291;61314;-81
2023/08/27 05:32:47;;;;;;;4.20;3.40;;;;;;;30.63;41.27;100609.35;102804;1291;61431;-81
2023/08/27 05:35:13;;;;;;;4.40;3.40;;;;;;;30.63;41.26;100609.35;102828;1293;61342;-81
2023/08/27 05:37:39;;;;;;;4.80;3.60;;;;;;;30.64;41.39;100611.77;102902;1289;63183;-81
2023/08/27 05:40:06;;;;;;;4.50;3.30;;;;;;;30.65;41.28;100612.07;102802;1291;61402;-82
2023/08/27 05:42:32;;;;;;;5.20;3.60;;;;;;;30.65;41.31;100608.92;102804;1291;61391;-81
2023/08/27 05:44:58;;;;;;;5.90;3.50;;;;;;;30.66;41.33;100609.91;102775;1291;62125;-81
2023/08/27 05:47:24;;;;;;;4.40;3.30;;;;;;;30.66;41.32;100609.16;102787;1296;61449;-82
2023/08/27 05:49:49;;;;;;;5.50;3.60;;;;;;;30.68;41.46;100611.58;102764;1291;61427;-82
2023/08/27 05:52:15;;;;;;;3.90;3.20;;;;;;;30.68;41.36;100612.59;102886;1289;61407;-83
2023/08/27 05:54:40;;;;;;;5.00;3.60;;;;;;;30.69;41.53;100616.17;102812;1293;61388;-82
2023/08/27 05:57:06;;;;;;;4.90;3.60;;;;;;;30.69;41.57;100614.27;102811;1291;62446;-82
2023/08/27 05:59:32;;;;;;;4.30;3.30;;;;;;;30.70;41.54;100615.11;102741;1290;62422;-82
2023/08/27 06:01:59;;;;;;;4.00;3.20;;;;;;;30.70;41.59;100617.55;102616;1291;359665;-81
2023/08/27 06:04:24;;;;;;;4.10;3.40;;;;;;;30.72;41.53;100622.52;102837;1291;61308;-83
2023/08/27 06:06:50;;;;;;;5.40;3.50;;;;;;;30.72;41.47;100624.84;102804;1291;62350;-83
2023/08/27 06:09:16;;;;;;;5.00;3.60;;;;;;;30.73;41.49;100623.30;102886;1291;61398;-82
2023/08/27 06:11:42;;;;;;;4.30;3.50;;;;;;;30.73;41.57;100625.34;102803;1289;61391;-81
2023/08/27 06:14:07;;;;;;;4.70;3.50;;;;;;;30.74;41.63;100628.06;102897;1291;61349;-81
2023/08/27 06:16:33;;;;;;;4.50;3.40;;;;;;;30.75;41.66;100629.09;102824;1291;61386;-81
2023/08/27 06:18:59;;;;;;;4.80;3.60;;;;;;;30.75;41.57;100627.19;102766;1291;61532;-83
2023/08/27 06:21:24;;;;;;;5.20;3.70;;;;;;;30.75;41.56;100622.46;102795;1291;61414;-80
2023/08/27 06:23:50;;;;;;;4.40;3.50;;;;;;;30.76;41.49;100623.66;102737;1296;61374;-81
2023/08/27 06:26:15;;;;;;;4.70;3.60;;;;;;;30.77;41.51;100623.39;102862;1291;61924;-83
2023/08/27 06:28:41;;;;;;;4.00;3.30;;;;;;;30.77;41.65;100625.14;102804;1293;61824;-82
2023/08/27 06:31:06;;;;;;;4.70;3.50;;;;;;;30.78;41.67;100624.40;102769;1291;61405;-83
2023/08/27 06:33:32;;;;;;;5.20;3.90;;;;;;;30.78;41.64;100623.61;102800;1291;61409;-83
2023/08/27 06:35:58;;;;;;;4.50;3.30;;;;;;;30.79;41.65;100624.08;102733;1293;61422;-83
2023/08/27 06:38:24;;;;;;;4.60;3.40;;;;;;;30.79;41.58;100625.73;102774;1290;62116;-83
2023/08/27 06:40:50;;;;;;;4.20;3.40;;;;;;;30.79;41.69;100626.73;102730;1295;61375;-83
2023/08/27 06:43:15;;;;;;;4.80;3.80;;;;;;;30.81;41.57;100628.02;102860;1291;62392;-81
2023/08/27 06:45:41;;;;;;;4.20;3.20;;;;;;;30.81;41.60;100632.86;102925;1289;64747;-83
2023/08/27 06:48:08;;;;;;;4.70;3.50;;;;;;;30.82;41.71;100631.73;102791;1291;62573;-83
2023/08/27 06:50:33;;;;;;;4.70;3.40;;;;;;;30.82;41.61;100635.30;102746;1291;61437;-83
2023/08/27 06:52:59;;;;;;;4.60;3.50;;;;;;;30.83;41.62;100637.92;102850;1291;61545;-82
2023/08/27 06:55:24;;;;;;;4.90;3.40;;;;;;;30.84;41.67;100636.22;102773;1291;62190;-82
2023/08/27 06:57:50;;;;;;;5.00;3.60;;;;;;;30.84;41.56;100634.02;102924;1293;61294;-83
2023/08/27 07:00:17;;;;;;;4.70;3.80;;;;;;;30.84;41.59;100632.16;102840;1291;66830;-82
2023/08/27 07:02:44;;;;;;;4.90;3.50;;;;;;;30.85;41.65;100633.55;102842;1290;62516;-82
2023/08/27 07:05:10;;;;;;;5.10;3.60;;;;;;;30.86;41.62;100634.73;102708;1291;61312;-83
2023/08/27 07:07:40;;;;;;;4.60;3.80;;;;;;;30.86;41.70;100631.27;102781;1291;63796;-84
2023/08/27 07:10:07;;;;;;;5.30;3.50;;;;;;;30.86;41.50;100627.54;102752;1295;65651;-83
2023/08/27 07:12:35;;;;;;;5.60;3.70;;;;;;;30.86;41.53;100621.71;102825;1291;61293;-81
2023/08/27 07:15:02;;;;;;;4.30;3.50;;;;;;;30.87;41.56;100620.02;102829;1290;61290;-82
2023/08/27 07:17:28;;;;;;;5.40;3.60;;;;;;;30.88;41.45;100621.75;102833;1291;65117;-81
2023/08/27 07:19:53;;;;;;;4.70;3.30;;;;;;;30.88;41.55;100625.20;102753;1291;61841;-83
2023/08/27 07:22:20;;;;;;;5.00;3.50;;;;;;;30.87;41.53;100623.41;102783;1291;61433;-81
2023/08/27 07:24:46;;;;;;;5.00;3.50;;;;;;;30.88;41.63;100623.35;102845;1291;61952;-81
2023/08/27 07:27:12;;;;;;;4.50;3.50;;;;;;;30.88;41.48;100623.14;102777;1291;61787;-81
2023/08/27 07:29:38;;;;;;;4.70;3.80;;;;;;;30.88;41.48;100625.13;102796;1291;61410;-83
2023/08/27 07:32:04;;;;;;;4.70;3.60;;;;;;;30.90;41.41;100627.70;102858;1295;61399;-80
2023/08/27 07:34:30;;;;;;;4.90;3.80;;;;;;;30.89;41.44;100626.82;102711;1291;61700;-81
2023/08/27 07:36:56;;;;;;;4.00;3.20;;;;;;;30.90;41.52;100625.70;102932;1291;61745;-83
2023/08/27 07:39:22;;;;;;;4.70;3.30;;;;;;;30.90;41.53;100620.23;102788;1291;61344;-81
2023/08/27 07:41:49;;;;;;;4.70;3.40;;;;;;;30.89;41.45;100612.48;102754;1291;62194;-81
2023/08/27 07:44:16;;;;;;;4.50;3.60;;;;;;;30.90;41.41;100613.46;103020;1290;61450;-81
2023/08/27 07:46:42;;;;;;;4.80;3.50;;;;;;;30.91;41.41;100617.06;102902;1291;61407;-81
2023/08/27 07:49:08;;;;;;;4.60;3.40;;;;;;;30.91;41.38;100609.43;102695;1296;62232;-81
2023/08/27 07:51:34;;;;;;;4.60;3.60;;;;;;;30.91;41.43;100611.24;102675;1291;61321;-82
2023/08/27 07:54:00;;;;;;;4.70;3.40;;;;;;;30.91;41.37;100613.05;102819;1291;61547;-82
2023/08/27 07:56:25;;;;;;;4.80;3.60;;;;;;;30.91;41.32;100616.96;102737;1291;61939;-82
2023/08/27 07:58:51;;;;;;;4.50;3.30;;;;;;;30.92;41.28;100616.01;102858;1291;61411;-82
2023/08/27 08:01:18;;;;;;;4.30;3.50;;;;;;;30.92;41.33;100614.37;102873;1290;63664;-82
2023/08/27 08:03:43;;;;;;;4.10;3.40;;;;;;;30.92;41.35;100609.80;102843;1291;61456;-81
2023/08/27 08:06:09;;;;;;;4.40;3.70;;;;;;;30.92;41.30;100608.34;102799;1293;61557;-81
2023/08/27 08:08:34;;;;;;;4.80;3.40;;;;;;;30.92;41.16;100609.27;102803;1291;61427;-81
2023/08/27 08:11:01;;;;;;;4.90;3.50;;;;;;;30.92;41.19;100605.48;102882;1293;61405;-81
2023/08/27 08:13:26;;;;;;;5.70;3.60;;;;;;;30.92;41.23;100608.92;102816;1291;62505;-82
2023/08/27 08:15:52;;;;;;;4.40;3.40;;;;;;;30.92;41.31;100606.56;102747;1291;65964;-81
2023/08/27 08:18:19;;;;;;;4.50;3.60;;;;;;;30.92;41.30;100603.56;102769;1291;62334;-82
2023/08/27 08:20:44;;;;;;;4.80;3.60;;;;;;;30.92;41.26;100599.85;102907;1291;61388;-83
2023/08/27 08:23:11;;;;;;;4.20;3.30;;;;;;;30.92;41.19;100599.95;102732;1296;61921;-83
2023/08/27 08:25:37;;;;;;;4.60;3.60;;;;;;;30.92;41.11;100596.14;102786;1291;61570;-83
2023/08/27 08:28:04;;;;;;;5.20;3.70;;;;;;;30.93;41.18;100592.67;102754;1291;61274;-82
2023/08/27 08:30:29;;;;;;;4.50;3.50;;;;;;;30.92;41.13;100589.80;102877;1290;61373;-82
2023/08/27 08:32:55;;;;;;;4.80;3.70;;;;;;;30.93;41.12;100590.11;102770;1291;62006;-82
2023/08/27 08:35:21;;;;;;;4.60;3.70;;;;;;;30.92;41.19;100587.00;102766;1295;61437;-82
2023/08/27 08:37:47;;;;;;;4.40;3.40;;;;;;;30.93;41.20;100589.36;102884;1291;61410;-82
2023/08/27 08:40:14;;;;;;;4.50;3.30;;;;;;;30.93;41.08;100589.52;102752;1296;61482;-82
2023/08/27 08:42:56;;;;;;;4.10;3.40;;;;;;;30.93;41.06;100585.87;102793;1295;61455;-83
2023/08/27 08:45:59;;;;;;;4.70;3.60;;;;;;;30.93;41.06;100585.36;102876;1291;64588;-81
2023/08/27 08:48:25;;;;;;;4.40;3.60;;;;;;;30.93;41.12;100583.58;102749;1293;66810;-84
2023/08/27 08:50:52;;;;;;;4.20;3.40;;;;;;;30.93;41.09;100586.08;102723;1291;61442;-82
2023/08/27 08:53:18;;;;;;;4.70;3.50;;;;;;;30.93;41.17;100586.59;102845;1291;61332;-82
2023/08/27 08:55:46;;;;;;;4.70;3.50;;;;;;;30.94;41.00;100586.69;102736;1290;61424;-83
2023/08/27 08:58:11;;;;;;;4.30;3.50;;;;;;;30.94;41.13;100583.98;102801;1296;67074;-82
2023/08/27 09:00:37;;;;;;;5.20;3.60;;;;;;;30.94;41.03;100580.15;102724;1291;61937;-82
2023/08/27 09:03:03;;;;;;;5.20;3.40;;;;;;;30.94;41.08;100581.36;102781;1291;62283;-83
2023/08/27 09:05:30;;;;;;;4.70;3.50;;;;;;;30.94;40.96;100577.09;102816;1291;61460;-82
2023/08/27 09:07:57;;;;;;;5.10;3.70;;;;;;;30.94;41.00;100573.23;102732;1291;61335;-83
2023/08/27 09:10:22;;;;;;;4.30;3.50;;;;;;;30.94;41.00;100566.52;102928;1291;61407;-82
2023/08/27 09:12:48;;;;;;;4.90;3.70;;;;;;;30.94;40.92;100561.58;102763;1291;61312;-83
2023/08/27 09:15:13;;;;;;;4.50;3.40;;;;;;;30.95;40.85;100561.86;102782;1291;62000;-83
2023/08/27 09:17:39;;;;;;;4.40;3.60;;;;;;;30.95;40.91;100560.77;102863;1291;61351;-83
2023/08/27 09:20:07;;;;;;;5.60;3.80;;;;;;;30.95;41.00;100560.42;102778;1297;61367;-83
2023/08/27 09:22:35;;;;;;;4.80;3.70;;;;;;;30.95;40.99;100555.92;102734;1294;61417;-83
2023/08/27 09:25:04;;;;;;;5.00;3.50;;;;;;;30.95;41.02;100552.48;102822;1296;61293;-84
2023/08/27 09:27:31;;;;;;;5.30;3.50;;;;;;;30.95;40.80;100549.73;102760;1291;64524;-83
2023/08/27 09:30:00;;;;;;;4.60;3.40;;;;;;;30.95;40.85;100549.38;102821;1293;62410;-81
2023/08/27 09:32:26;;;;;;;4.60;3.50;;;;;;;30.95;40.85;100543.52;102750;1296;61282;-81
2023/08/27 09:34:58;;;;;;;4.50;3.60;;;;;;;30.95;40.83;100542.05;102798;1291;61904;-81
2023/08/27 09:37:27;;;;;;;5.00;3.50;;;;;;;30.95;40.83;100530.48;102812;1291;64899;-82
2023/08/27 09:39:53;;;;;;;4.60;3.60;;;;;;;30.95;40.77;100527.38;102938;1291;66975;-81
2023/08/27 09:42:18;;;;;;;4.80;3.60;;;;;;;30.95;40.91;100520.87;102779;1294;62252;-81
2023/08/27 09:44:51;;;;;;;4.50;3.50;;;;;;;30.94;40.78;100517.04;102837;1291;61520;-82
2023/08/27 09:47:29;;;;;;;4.00;3.10;;;;;;;30.94;40.77;100521.23;102876;1291;63874;-85
2023/08/27 09:49:55;;;;;;;4.40;3.60;;;;;;;30.95;40.76;100519.40;102814;1291;66281;-81
2023/08/27 09:52:24;;;;;;;4.70;3.60;;;;;;;30.95;40.72;100516.48;102739;1294;62426;-83
2023/08/27 09:54:52;;;;;;;4.10;3.30;;;;;;;30.94;40.69;100511.98;102783;1291;62106;-83
2023/08/27 09:57:18;;;;;;;4.30;3.50;;;;;;;30.95;40.78;100507.41;102970;1291;63778;-81
2023/08/27 09:59:44;;;;;;;4.50;3.40;;;;;;;30.95;40.73;100506.83;103038;1291;66041;-80
2023/08/27 10:02:14;;;;;;;4.20;3.40;;;;;;;30.95;40.75;100509.31;102777;1291;61332;-81
2023/08/27 10:04:54;;;;;;;4.30;3.50;;;;;;;30.94;40.73;100510.72;102809;1291;62324;-81
2023/08/27 10:07:19;;;;;;;4.60;3.20;;;;;;;30.95;40.81;100506.34;102839;1293;63564;-81
2023/08/27 10:09:52;;;;;;;4.60;3.50;;;;;;;30.95;40.76;100497.23;102815;1291;61989;-81
2023/08/27 10:12:21;;;;;;;4.40;3.60;;;;;;;30.95;40.73;100498.66;102737;1291;61384;-81
2023/08/27 10:14:47;;;;;;;4.50;3.40;;;;;;;30.94;40.68;100500.91;102924;1290;61373;-83
2023/08/27 10:17:15;;;;;;;4.00;3.30;;;;;;;30.94;40.69;100495.63;102745;1297;61353;-83
2023/08/27 10:19:40;;;;;;;4.70;3.60;;;;;;;30.94;40.66;100488.38;102722;1291;65726;-83
2023/08/27 10:22:06;;;;;;;4.80;3.30;;;;;;;30.94;40.65;100488.74;102767;1296;61411;-83
2023/08/27 10:24:33;;;;;;;4.40;3.40;;;;;;;30.94;40.59;100489.12;102724;1291;61801;-83
2023/08/27 10:27:02;;;;;;;4.90;3.40;;;;;;;30.94;40.62;100487.98;103022;1295;61331;-80
2023/08/27 10:29:28;;;;;;;4.80;3.40;;;;;;;30.94;40.67;100485.10;102790;1291;66594;-80
2023/08/27 10:31:55;;;;;;;4.40;3.50;;;;;;;30.95;40.66;100485.98;102927;1290;61274;-80
2023/08/27 10:34:23;;;;;;;4.50;3.50;;;;;;;30.94;40.69;100485.45;102829;1291;61373;-80
2023/08/27 10:36:52;;;;;;;4.20;3.50;;;;;;;30.94;40.58;100481.84;102806;1291;63959;-80
2023/08/27 10:39:20;;;;;;;4.10;3.40;;;;;;;30.94;40.64;100482.55;102767;1291;65650;-81
2023/08/27 10:41:46;;;;;;;4.20;3.60;;;;;;;30.94;40.59;100476.38;102802;1291;61387;-80
2023/08/27 10:44:19;;;;;;;4.30;3.40;;;;;;;30.94;40.57;100472.02;102820;1290;61404;-81
2023/08/27 10:47:12;;;;;;;4.10;3.40;;;;;;;30.94;40.52;100463.87;102823;1296;63696;-81
2023/08/27 10:49:38;;;;;;;5.50;3.60;;;;;;;30.93;40.58;100460.30;102875;1293;66987;-82
2023/08/27 10:52:18;;;;;;;4.60;3.50;;;;;;;30.93;40.39;100459.21;103101;1292;62566;-82
2023/08/27 10:54:46;;;;;;;4.20;3.50;;;;;;;30.93;40.51;100456.83;103031;1291;61322;-82
2023/08/27 10:57:22;;;;;;;4.40;3.50;;;;;;;30.94;40.56;100454.27;102852;1291;63863;-82
2023/08/27 10:59:48;;;;;;;4.60;3.60;;;;;;;30.93;40.57;100454.30;102918;1290;66576;-82
2023/08/27 11:02:16;;;;;;;4.70;3.30;;;;;;;30.93;40.51;100447.77;103031;1291;61418;-82
2023/08/27 11:04:49;;;;;;;4.70;3.40;;;;;;;30.94;40.59;100449.91;102905;1292;61322;-82
2023/08/27 11:07:17;;;;;;;4.90;3.60;;;;;;;30.94;40.53;100446.27;102903;1292;65057;-82
2023/08/27 11:09:57;;;;;;;4.60;3.30;;;;;;;30.94;40.48;100445.17;102776;1291;66271;-82
2023/08/27 11:12:35;;;;;;;4.30;3.60;;;;;;;30.93;40.48;100444.13;102771;1291;61339;-82
2023/08/27 11:15:14;;;;;;;4.40;3.50;;;;;;;30.93;40.38;100440.52;102868;1291;61413;-82